createdAt,value
2023-03-26T00:01:40.920Z,2.50
2023-03-26T00:04:08.508Z,2.50
2023-03-26T00:06:40.016Z,1.80
2023-03-26T00:09:09.692Z,3.20
2023-03-26T00:11:36.823Z,2.60
2023-03-26T00:14:05.877Z,2.10
2023-03-26T00:16:40.615Z,2.40
2023-03-26T00:19:08.390Z,2.50
2023-03-26T00:21:35.517Z,3.80
2023-03-26T00:24:06.652Z,2.40
2023-03-26T00:26:38.802Z,2.90
2023-03-26T00:29:07.221Z,2.70
2023-03-26T00:31:34.684Z,3.60
2023-03-26T00:34:04.054Z,3.20
2023-03-26T00:36:31.515Z,2.40
2023-03-26T00:38:58.672Z,2.20
2023-03-26T00:41:27.213Z,2.70
2023-03-26T00:43:57.125Z,2.80
2023-03-26T00:46:37.550Z,2.40
2023-03-26T00:49:04.633Z,2.50
2023-03-26T00:51:32.241Z,3.70
2023-03-26T00:53:59.358Z,2.40
2023-03-26T00:56:27.062Z,2.40
2023-03-26T00:58:54.172Z,2.00
2023-03-26T01:01:29.274Z,3.90
2023-03-26T01:04:08.957Z,2.60
2023-03-26T01:06:39.755Z,2.50
2023-03-26T01:09:20.266Z,3.50
2023-03-26T01:11:49.069Z,2.20
2023-03-26T01:14:25.467Z,4.40
2023-03-26T01:17:04.434Z,2.80
2023-03-26T01:19:52.538Z,1.80
2023-03-26T01:22:24.837Z,3.30
2023-03-26T01:24:57.015Z,3.10
2023-03-26T01:27:36.191Z,2.20
2023-03-26T01:30:27.809Z,2.50
2023-03-26T01:33:20.836Z,2.80
2023-03-26T01:36:29.388Z,2.20
2023-03-26T01:39:25.611Z,3.10
2023-03-26T01:41:58.725Z,2.40
2023-03-26T01:44:50.741Z,2.40
2023-03-26T01:47:18.802Z,3.10
2023-03-26T01:49:46.017Z,3.60
2023-03-26T01:52:20.086Z,2.90
2023-03-26T01:54:47.733Z,3.00
2023-03-26T01:57:40.012Z,2.60
2023-03-26T02:00:19.787Z,1.90
2023-03-26T02:02:59.459Z,2.10
2023-03-26T02:05:36.090Z,1.80
2023-03-26T02:08:17.069Z,1.80
2023-03-26T02:10:47.796Z,2.10
2023-03-26T02:13:15.680Z,3.20
2023-03-26T02:15:56.186Z,3.30
2023-03-26T02:18:24.440Z,1.40
2023-03-26T02:20:55.966Z,2.80
2023-03-26T02:23:23.399Z,3.40
2023-03-26T02:25:50.564Z,2.60
2023-03-26T02:28:17.965Z,1.90
2023-03-26T02:30:46.328Z,3.10
2023-03-26T02:33:15.998Z,2.30
2023-03-26T02:35:46.372Z,3.20
2023-03-26T02:38:15.014Z,4.60
2023-03-26T02:40:42.256Z,2.20
2023-03-26T02:43:09.503Z,3.40
2023-03-26T02:45:36.577Z,2.90
2023-03-26T02:48:04.156Z,5.00
2023-03-26T02:50:33.240Z,2.10
2023-03-26T02:53:01.162Z,2.20
2023-03-26T02:55:28.822Z,1.70
2023-03-26T02:57:56.852Z,3.00
2023-03-26T03:00:23.955Z,2.40
2023-03-26T03:02:51.099Z,1.40
2023-03-26T03:05:18.772Z,2.60
2023-03-26T03:07:46.999Z,1.60
2023-03-26T03:10:15.804Z,1.40
2023-03-26T03:12:43.675Z,2.00
2023-03-26T03:15:11.850Z,2.50
2023-03-26T03:17:38.958Z,0.90
2023-03-26T03:20:09.563Z,2.50
2023-03-26T03:22:36.972Z,3.80
2023-03-26T03:25:05.887Z,1.30
2023-03-26T03:27:33.115Z,1.70
2023-03-26T03:30:00.197Z,3.60
2023-03-26T03:32:28.036Z,1.90
2023-03-26T03:34:55.319Z,4.50
2023-03-26T03:37:22.357Z,3.50
2023-03-26T03:39:49.642Z,2.20
2023-03-26T03:42:16.824Z,2.20
2023-03-26T03:44:44.171Z,2.40
2023-03-26T03:47:14.089Z,2.70
2023-03-26T03:49:41.639Z,5.70
2023-03-26T03:52:08.922Z,2.90
2023-03-26T03:54:36.698Z,2.30
2023-03-26T03:57:03.948Z,2.80
2023-03-26T03:59:31.372Z,3.10
2023-03-26T04:01:58.770Z,2.30
2023-03-26T04:04:26.455Z,3.30
2023-03-26T04:06:53.429Z,3.70
2023-03-26T04:09:20.882Z,1.90
2023-03-26T04:11:48.279Z,1.80
2023-03-26T04:14:15.373Z,3.20
2023-03-26T04:16:42.602Z,2.30
2023-03-26T04:19:09.799Z,2.50
2023-03-26T04:21:38.056Z,1.80
2023-03-26T04:24:06.443Z,2.30
2023-03-26T04:26:33.375Z,3.00
2023-03-26T04:29:03.960Z,2.00
2023-03-26T04:31:31.587Z,3.40
2023-03-26T04:34:14.290Z,1.80
2023-03-26T04:36:42.949Z,2.10
2023-03-26T04:39:13.649Z,1.20
2023-03-26T04:41:40.828Z,4.80
2023-03-26T04:44:07.766Z,2.00
2023-03-26T04:46:35.370Z,2.90
2023-03-26T04:49:02.571Z,3.30
2023-03-26T04:51:38.724Z,2.20
2023-03-26T04:54:08.461Z,3.10
2023-03-26T04:56:52.141Z,1.70
2023-03-26T04:59:26.668Z,2.40
2023-03-26T05:01:54.558Z,3.60
2023-03-26T05:04:21.628Z,3.10
2023-03-26T05:06:49.064Z,5.90
2023-03-26T05:09:16.679Z,3.70
2023-03-26T05:11:43.881Z,3.90
2023-03-26T05:14:11.484Z,6.10
2023-03-26T05:16:40.004Z,4.20
2023-03-26T05:19:07.411Z,2.30
2023-03-26T05:21:35.193Z,2.00
2023-03-26T05:24:02.657Z,2.10
2023-03-26T05:26:29.927Z,1.40
2023-03-26T05:28:57.281Z,3.00
2023-03-26T05:31:25.085Z,4.90
2023-03-26T05:33:52.858Z,5.00
2023-03-26T05:36:20.316Z,4.60
2023-03-26T05:38:50.289Z,2.50
2023-03-26T05:41:18.208Z,3.90
2023-03-26T05:43:46.461Z,3.40
2023-03-26T05:46:14.532Z,3.50
2023-03-26T05:48:41.885Z,2.40
2023-03-26T05:51:09.664Z,2.70
2023-03-26T05:53:36.770Z,4.10
2023-03-26T05:56:04.780Z,2.20
2023-03-26T05:58:36.769Z,1.60
2023-03-26T06:01:17.147Z,2.90
2023-03-26T06:03:46.156Z,3.10
2023-03-26T06:06:16.516Z,2.50
2023-03-26T06:08:47.495Z,1.80
2023-03-26T06:13:43.371Z,1.80
2023-03-26T06:16:25.979Z,2.40
2023-03-26T06:18:56.653Z,2.70
2023-03-26T06:21:26.000Z,4.40
2023-03-26T06:23:53.607Z,3.00
2023-03-26T06:26:21.645Z,2.30
2023-03-26T06:28:48.767Z,1.30
2023-03-26T06:31:17.661Z,2.00
2023-03-26T06:33:45.374Z,1.90
2023-03-26T06:36:12.383Z,3.50
2023-03-26T06:38:39.780Z,3.10
2023-03-26T06:41:08.154Z,4.90
2023-03-26T06:43:36.749Z,2.20
2023-03-26T06:46:04.852Z,2.30
2023-03-26T06:48:32.240Z,4.20
2023-03-26T06:51:08.950Z,2.70
2023-03-26T06:53:41.973Z,1.50
2023-03-26T06:56:18.897Z,2.40
2023-03-26T06:58:51.387Z,3.90
2023-03-26T07:01:18.626Z,1.90
2023-03-26T07:03:46.147Z,1.50
2023-03-26T07:06:13.512Z,3.50
2023-03-26T07:08:40.784Z,4.90
2023-03-26T07:11:08.023Z,3.60
2023-03-26T07:13:35.469Z,3.70
2023-03-26T07:16:03.108Z,4.60
2023-03-26T07:18:30.440Z,3.20
2023-03-26T07:20:58.052Z,4.40
2023-03-26T07:23:25.712Z,3.00
2023-03-26T07:25:53.365Z,2.10
2023-03-26T07:28:34.593Z,3.60
2023-03-26T07:31:35.095Z,2.20
2023-03-26T07:34:05.665Z,2.70
2023-03-26T07:36:48.794Z,2.30
2023-03-26T07:39:44.968Z,5.20
2023-03-26T07:42:28.709Z,1.80
2023-03-26T07:45:13.144Z,2.30
2023-03-26T07:47:43.222Z,2.60
2023-03-26T07:50:19.128Z,3.20
2023-03-26T07:52:46.972Z,2.30
2023-03-26T07:55:16.064Z,1.70
2023-03-26T07:58:17.621Z,6.10
2023-03-26T08:00:57.512Z,3.60
2023-03-26T08:03:30.864Z,2.40
2023-03-26T08:06:09.065Z,3.90
2023-03-26T08:08:45.999Z,4.80
2023-03-26T08:11:35.035Z,1.70
2023-03-26T08:14:20.272Z,2.70
2023-03-26T08:16:56.650Z,3.90
2023-03-26T08:19:29.516Z,3.40
2023-03-26T08:22:06.913Z,1.90
2023-03-26T08:24:47.827Z,3.20
2023-03-26T08:27:38.537Z,3.70
2023-03-26T08:30:17.593Z,3.50
2023-03-26T08:32:54.354Z,2.20
2023-03-26T08:35:21.654Z,5.20
2023-03-26T08:37:48.569Z,3.30
2023-03-26T08:40:46.434Z,3.20
2023-03-26T08:43:44.374Z,2.00
2023-03-26T08:46:30.931Z,2.60
2023-03-26T08:49:29.679Z,1.90
2023-03-26T08:52:34.530Z,2.50
2023-03-26T08:55:17.118Z,3.70
2023-03-26T08:58:21.758Z,2.00
2023-03-26T09:01:17.531Z,2.80
2023-03-26T09:04:13.666Z,3.30
2023-03-26T09:06:48.695Z,2.20
2023-03-26T09:09:31.273Z,2.60
2023-03-26T09:12:36.191Z,3.30
2023-03-26T09:15:28.479Z,2.60
2023-03-26T09:17:58.584Z,4.00
2023-03-26T09:20:44.146Z,3.20
2023-03-26T09:23:45.471Z,2.50
2023-03-26T09:26:25.358Z,3.30
2023-03-26T09:29:10.540Z,3.40
2023-03-26T09:32:02.830Z,3.10
2023-03-26T09:34:33.277Z,2.80
2023-03-26T09:37:21.900Z,2.80
2023-03-26T09:40:18.875Z,3.10
2023-03-26T09:43:17.181Z,5.10
2023-03-26T09:45:52.902Z,3.00
2023-03-26T09:48:58.514Z,4.20
2023-03-26T09:51:27.739Z,4.70
2023-03-26T09:54:32.351Z,3.80
2023-03-26T09:57:09.021Z,4.10
2023-03-26T09:59:51.944Z,3.30
2023-03-26T10:02:46.234Z,5.80
2023-03-26T10:05:30.451Z,3.30
2023-03-26T10:08:25.418Z,3.10
2023-03-26T10:10:58.652Z,3.60
2023-03-26T10:13:43.979Z,2.60
2023-03-26T10:16:30.139Z,2.80
2023-03-26T10:19:20.311Z,1.60
2023-03-26T10:22:11.981Z,3.90
2023-03-26T10:25:19.740Z,2.70
2023-03-26T10:28:07.820Z,2.10
2023-03-26T10:30:48.771Z,1.20
2023-03-26T10:33:38.458Z,3.40
2023-03-26T10:36:23.372Z,4.60
2023-03-26T10:39:09.599Z,3.10
2023-03-26T10:41:45.975Z,3.40
2023-03-26T10:44:46.055Z,3.20
2023-03-26T10:47:24.970Z,5.30
2023-03-26T10:50:23.124Z,5.20
2023-03-26T10:53:53.164Z,1.60
2023-03-26T10:56:33.273Z,3.10
2023-03-26T10:59:05.987Z,1.30
2023-03-26T11:01:33.323Z,2.80
2023-03-26T11:04:32.562Z,2.00
2023-03-26T11:07:07.500Z,3.90
2023-03-26T11:09:54.335Z,2.30
2023-03-26T11:12:25.798Z,2.20
2023-03-26T11:15:16.543Z,1.80
2023-03-26T11:18:01.973Z,2.70
2023-03-26T11:21:19.770Z,12.70
2023-03-26T11:24:17.403Z,2.30
2023-03-26T11:26:56.173Z,2.30
2023-03-26T11:29:53.664Z,2.80
2023-03-26T11:32:38.590Z,2.30
2023-03-26T11:35:40.540Z,3.00
2023-03-26T11:38:34.032Z,3.70
2023-03-26T11:41:04.203Z,3.80
2023-03-26T11:43:37.723Z,2.60
2023-03-26T11:46:15.103Z,1.90
2023-03-26T11:48:51.332Z,2.80
2023-03-26T11:51:33.502Z,2.20
2023-03-26T11:54:03.406Z,3.30
2023-03-26T11:57:05.594Z,3.10
2023-03-26T11:59:53.152Z,2.60
2023-03-26T12:02:32.930Z,3.20
2023-03-26T12:05:18.852Z,3.30
2023-03-26T12:07:47.240Z,2.50
2023-03-26T12:10:29.443Z,3.30
2023-03-26T12:13:02.546Z,2.40
2023-03-26T12:15:34.246Z,3.40
2023-03-26T12:18:28.964Z,2.50
2023-03-26T12:21:09.227Z,3.60
2023-03-26T12:24:06.423Z,2.50
2023-03-26T12:26:36.878Z,3.20
2023-03-26T12:29:17.888Z,2.40
2023-03-26T12:32:03.641Z,4.80
2023-03-26T12:34:35.685Z,36.20
2023-03-26T12:37:05.077Z,2.50
2023-03-26T12:40:07.134Z,24.60
2023-03-26T12:44:47.214Z,5.50
2023-03-26T12:45:37.972Z,2.60
2023-03-26T12:48:05.781Z,6.50
2023-03-26T12:50:44.639Z,3.30
2023-03-26T12:53:23.515Z,2.30
2023-03-26T12:56:02.235Z,1.60
2023-03-26T12:58:44.378Z,3.40
2023-03-26T13:01:16.259Z,2.80
2023-03-26T13:04:07.196Z,4.80
2023-03-26T13:06:59.260Z,3.60
2023-03-26T13:09:56.400Z,2.00
2023-03-26T13:12:42.224Z,1.20
2023-03-26T13:15:39.204Z,2.50
2023-03-26T13:18:33.340Z,4.00
2023-03-26T13:21:23.843Z,1.80
2023-03-26T13:24:14.227Z,2.50
2023-03-26T13:27:13.626Z,2.40
2023-03-26T13:29:41.130Z,2.60
2023-03-26T13:32:40.559Z,2.80
2023-03-26T13:35:14.247Z,3.60
2023-03-26T13:37:56.321Z,2.80
2023-03-26T13:40:39.507Z,3.10
2023-03-26T13:43:44.444Z,2.60
2023-03-26T13:46:14.342Z,4.80
2023-03-26T13:49:00.419Z,3.60
2023-03-26T13:51:49.213Z,4.80
2023-03-26T13:54:23.849Z,2.70
2023-03-26T13:57:33.568Z,2.20
2023-03-26T14:00:13.078Z,5.50
2023-03-26T14:02:42.435Z,5.20
2023-03-26T14:05:25.323Z,3.00
2023-03-26T14:08:21.924Z,5.70
2023-03-26T14:11:14.712Z,3.10
2023-03-26T14:13:47.606Z,3.60
2023-03-26T14:16:25.966Z,3.10
2023-03-26T14:19:29.808Z,3.10
2023-03-26T14:22:08.480Z,2.30
2023-03-26T14:24:54.818Z,2.60
2023-03-26T14:27:43.523Z,3.40
2023-03-26T14:30:39.967Z,5.00
2023-03-26T14:33:34.745Z,2.90
2023-03-26T14:36:16.170Z,2.90
2023-03-26T14:39:01.672Z,5.00
2023-03-26T14:41:57.281Z,4.20
2023-03-26T14:44:56.806Z,3.70
2023-03-26T14:47:27.591Z,4.90
2023-03-26T14:53:01.263Z,4.60
2023-03-26T14:55:43.958Z,4.60
2023-03-26T14:58:29.762Z,4.20
2023-03-26T15:01:42.032Z,3.70
2023-03-26T15:04:33.565Z,4.40
2023-03-26T15:07:45.248Z,3.00
2023-03-26T15:10:23.029Z,2.70
2023-03-26T15:13:22.254Z,2.80
2023-03-26T15:15:58.405Z,4.20
2023-03-26T15:18:58.961Z,3.00
2023-03-26T15:21:47.842Z,2.30
2023-03-26T15:24:31.382Z,3.40
2023-03-26T15:27:16.963Z,3.40
2023-03-26T15:30:06.880Z,3.80
2023-03-26T15:33:23.062Z,4.20
2023-03-26T15:36:19.815Z,3.00
2023-03-26T15:39:18.120Z,2.50
2023-03-26T15:41:50.319Z,3.50
2023-03-26T15:44:29.407Z,2.60
2023-03-26T15:47:28.631Z,4.10
2023-03-26T15:50:08.835Z,9.20
2023-03-26T15:52:43.296Z,3.50
2023-03-26T15:55:23.414Z,6.80
2023-03-26T15:58:24.322Z,7.10
2023-03-26T16:01:03.240Z,6.90
2023-03-26T16:03:39.453Z,8.20
2023-03-26T16:06:31.388Z,5.90
2023-03-26T16:09:40.960Z,10.80
2023-03-26T16:12:29.210Z,9.90
2023-03-26T16:15:16.872Z,35.90
2023-03-26T16:18:16.378Z,10.20
2023-03-26T16:20:57.500Z,13.10
2023-03-26T16:23:32.330Z,8.00
2023-03-26T16:26:13.377Z,4.20
2023-03-26T16:31:36.918Z,9.00
2023-03-26T16:34:05.618Z,42.00
2023-03-26T16:36:35.027Z,21.80
2023-03-26T16:39:11.860Z,29.70
2023-03-26T16:41:50.559Z,9.20
2023-03-26T16:44:59.280Z,19.10
2023-03-26T16:47:39.011Z,16.80
2023-03-26T16:50:32.973Z,22.00
2023-03-26T16:53:30.187Z,32.40
2023-03-26T16:56:02.904Z,7.20
2023-03-26T16:58:56.562Z,10.10
2023-03-26T17:01:56.927Z,42.80
2023-03-26T17:04:30.802Z,45.60
2023-03-26T17:07:09.135Z,41.70
2023-03-26T17:10:10.046Z,49.20
2023-03-26T17:13:03.199Z,40.00
2023-03-26T17:15:47.377Z,29.30
2023-03-26T17:18:26.610Z,18.20
2023-03-26T17:21:10.157Z,21.60
2023-03-26T17:23:39.081Z,26.00
2023-03-26T17:26:31.726Z,18.90
2023-03-26T17:29:27.644Z,20.00
2023-03-26T17:32:12.158Z,7.50
2023-03-26T17:34:47.343Z,7.10
2023-03-26T17:37:17.379Z,7.90
2023-03-26T17:39:45.743Z,9.60
2023-03-26T17:42:33.522Z,3.40
2023-03-26T17:45:17.849Z,13.90
2023-03-26T17:47:51.741Z,8.40
2023-03-26T17:50:27.682Z,7.50
2023-03-26T17:53:04.089Z,8.00
2023-03-26T17:55:35.210Z,12.00
2023-03-26T17:58:05.435Z,14.90
2023-03-26T18:00:40.683Z,19.90
2023-03-26T18:03:24.523Z,24.70
2023-03-26T18:05:56.854Z,11.70
2023-03-26T18:08:55.367Z,17.20
2023-03-26T18:11:43.683Z,16.80
2023-03-26T18:14:26.721Z,16.70
2023-03-26T18:16:58.966Z,13.20
2023-03-26T18:19:27.219Z,22.80
2023-03-26T18:21:57.927Z,13.20
2023-03-26T18:24:30.553Z,25.10
2023-03-26T18:27:11.993Z,32.80
2023-03-26T18:30:02.819Z,27.30
2023-03-26T18:32:34.068Z,17.70
2023-03-26T18:35:03.290Z,25.90
2023-03-26T18:37:36.426Z,40.80
2023-03-26T18:40:12.503Z,29.50
2023-03-26T18:42:41.696Z,27.20
2023-03-26T18:45:34.051Z,35.70
2023-03-26T18:48:21.690Z,45.60
2023-03-26T18:50:55.042Z,36.70
2023-03-26T18:53:30.021Z,64.00
2023-03-26T18:55:58.471Z,36.60
2023-03-26T18:58:33.118Z,44.10
2023-03-26T19:01:16.942Z,51.90
2023-03-26T19:03:51.396Z,28.20
2023-03-26T19:06:21.234Z,33.40
2023-03-26T19:08:49.044Z,43.30
2023-03-26T19:11:17.892Z,64.50
2023-03-26T19:13:50.888Z,55.00
2023-03-26T19:16:26.065Z,77.50
2023-03-26T19:18:54.167Z,58.10
2023-03-26T19:21:23.533Z,59.70
2023-03-26T19:23:52.599Z,72.70
2023-03-26T19:26:19.843Z,44.80
2023-03-26T19:28:54.559Z,37.40
2023-03-26T19:31:28.129Z,25.90
2023-03-26T19:34:02.567Z,14.60
2023-03-26T19:36:32.751Z,20.50
2023-03-26T19:38:59.653Z,19.30
2023-03-26T19:41:32.576Z,15.70
2023-03-26T19:44:02.000Z,57.40
2023-03-26T19:46:52.873Z,17.10
2023-03-26T19:49:58.080Z,24.70
2023-03-26T19:52:36.916Z,17.80
2023-03-26T19:55:19.099Z,58.70
2023-03-26T19:57:46.279Z,30.40
2023-03-26T20:00:14.748Z,20.60
2023-03-26T20:02:43.406Z,13.20
2023-03-26T20:05:25.967Z,16.40
2023-03-26T20:07:58.677Z,17.80
2023-03-26T20:10:26.359Z,17.50
2023-03-26T20:12:53.656Z,33.20
2023-03-26T20:15:24.729Z,46.70
2023-03-26T20:20:25.006Z,73.20
2023-03-26T20:22:54.139Z,81.80
2023-03-26T20:25:50.220Z,57.60
2023-03-26T20:28:19.400Z,42.80
2023-03-26T20:30:48.468Z,33.70
2023-03-26T20:33:19.490Z,32.10
2023-03-26T20:35:47.492Z,28.90
2023-03-26T20:38:14.715Z,35.40
2023-03-26T20:40:41.816Z,23.50
2023-03-26T20:43:14.081Z,39.80
2023-03-26T20:45:41.118Z,46.70
2023-03-26T20:48:12.143Z,48.90
2023-03-26T20:53:19.262Z,40.70
2023-03-26T20:55:47.961Z,43.80
2023-03-26T20:58:31.530Z,37.40
2023-03-26T21:01:02.563Z,55.30
2023-03-26T21:03:29.997Z,89.40
2023-03-26T21:06:01.280Z,20.20
2023-03-26T21:08:35.610Z,18.10
2023-03-26T21:11:04.978Z,18.80
2023-03-26T21:13:43.983Z,29.70
2023-03-26T21:16:12.428Z,31.50
2023-03-26T21:18:40.331Z,24.00
2023-03-26T21:21:42.072Z,17.20
2023-03-26T21:24:15.064Z,18.90
2023-03-26T21:26:55.395Z,16.90
2023-03-26T21:29:23.175Z,18.00
2023-03-26T21:31:52.170Z,22.70
2023-03-26T21:34:22.517Z,18.90
2023-03-26T21:36:59.798Z,17.20
2023-03-26T21:39:31.085Z,22.10
2023-03-26T21:42:05.436Z,30.00
2023-03-26T21:44:35.978Z,35.70
2023-03-26T21:47:12.007Z,35.70
2023-03-26T21:49:43.626Z,21.60
2023-03-26T21:52:15.230Z,30.20
2023-03-26T21:54:43.414Z,51.50
2023-03-26T21:57:21.621Z,29.00
2023-03-26T22:00:28.209Z,27.10
2023-03-26T22:03:21.855Z,33.30
2023-03-26T22:06:02.662Z,40.30
2023-03-26T22:08:41.704Z,34.40
2023-03-26T22:11:11.045Z,30.10
2023-03-26T22:13:39.355Z,27.00
2023-03-26T22:16:09.068Z,37.00
2023-03-26T22:18:36.002Z,32.90
2023-03-26T22:21:02.887Z,27.30
2023-03-26T22:23:36.639Z,30.60
2023-03-26T22:26:05.071Z,46.90
2023-03-26T22:28:32.295Z,41.90
2023-03-26T22:30:59.967Z,37.30
2023-03-26T22:33:27.274Z,30.90
2023-03-26T22:35:56.118Z,37.30
2023-03-26T22:38:23.297Z,33.40
2023-03-26T22:40:58.143Z,43.60
2023-03-26T22:43:25.224Z,26.60
2023-03-26T22:45:54.440Z,26.10
2023-03-26T22:48:23.935Z,21.10
2023-03-26T22:51:05.691Z,16.40
2023-03-26T22:53:32.906Z,13.30
2023-03-26T22:56:00.145Z,16.00
2023-03-26T22:58:27.495Z,17.90
2023-03-26T23:01:08.427Z,18.20
2023-03-26T23:03:37.157Z,18.90
2023-03-26T23:06:07.184Z,18.80
2023-03-26T23:08:36.471Z,16.60
2023-03-26T23:11:08.652Z,23.20
2023-03-26T23:13:35.531Z,17.40
2023-03-26T23:18:29.068Z,17.80
2023-03-26T23:20:57.862Z,18.10
2023-03-26T23:23:31.213Z,22.80
2023-03-26T23:26:00.378Z,23.80
2023-03-26T23:28:30.534Z,26.20
2023-03-26T23:30:57.568Z,26.20
2023-03-26T23:33:26.626Z,24.90
2023-03-26T23:36:00.198Z,24.10
2023-03-26T23:38:43.553Z,26.20
2023-03-26T23:41:15.447Z,24.80
2023-03-26T23:46:24.175Z,21.70
2023-03-26T23:48:51.947Z,19.00
2023-03-26T23:51:24.291Z,14.20
2023-03-26T23:53:52.818Z,19.90
2023-03-26T23:56:20.490Z,23.50
2023-03-26T23:58:49.114Z,19.70
